Main page
METAR-TAF:

METAR-TAF

Airports :

Baker Municipal Airport

Baker, Montana, United States

latitude: 46-20-52N, longitude: 104-15-27W, elevation: 2968 ft

Current weather observation

The report was made 44 minutes ago, at 17:51 UTC
Wind 8 mph from the East/Southeast
Temperature 43°F
Humidity 87%
Pressure 29.85 in. Hg
Visibility: 3 miles
Overcast at a height of 200 ft
mist

METAR: KBHK 241751Z AUTO 12007KT 3SM BR OVC002 06/04 A2985 RMK AO2 SLP121 60000 T00560039 10056 20022 51008

Time: 12:35 (18:35 UTC)


TAF: missing

Weather observations and forecasts of more than 4000 airports (METAR and TAF reports).

The available stations are represented by yellow and red dots on the map.

Hover mouse over dot to see the name of the station.

Then click to see weather observations and forecasts.

To change the map : click on the green buttons with a black cross to zoom in, on the green button with a dash to zoom out, or on the green arrows for adjacent maps.


METAR-TAF: